Time;durP1;ratioP1;P1;durP2;ratioP2;P2;SDS_P1;SDS_P2;PMS_P1;PMS_P2;Temp;Humidity;BMP_temperature;BMP_pressure;BME280_temperature;BME280_humidity;BME280_pressure;Samples;Min_cycle;Max_cycle;Signal;HPM_P1;HPM_P2
2022/05/17 00:00:59;;;;;;;17.40;6.93;;;;;;;;;;5051404;28;20077;-70
2022/05/17 00:03:27;;;;;;;24.85;7.20;;;;;;;;;;5051326;28;20504;-70
2022/05/17 00:05:53;;;;;;;;;;;;;;;;;;5051402;28;20468;-70
2022/05/17 00:08:19;;;;;;;19.45;8.02;;;;;;;;;;5051084;28;19978;-70
2022/05/17 00:10:46;;;;;;;18.00;7.32;;;;;;;;;;5051493;28;20081;-70
2022/05/17 00:13:12;;;;;;;20.13;8.07;;;;;;;;;;5050955;28;20069;-70
2022/05/17 00:15:42;;;;;;;23.30;8.48;;;;;;;;;;5051133;28;20075;-70
2022/05/17 00:18:11;;;;;;;19.08;7.22;;;;;;;;;;5050891;28;20132;-70
2022/05/17 00:20:38;;;;;;;25.80;7.78;;;;;;;;;;5053790;28;20079;-70
2022/05/17 00:23:04;;;;;;;18.67;7.40;;;;;;;;;;5054627;28;20084;-70
2022/05/17 00:25:31;;;;;;;17.60;6.85;;;;;;;;;;5054582;28;20524;-70
2022/05/17 00:27:57;;;;;;;19.35;6.80;;;;;;;;;;5054913;28;20077;-70
2022/05/17 00:30:23;;;;;;;21.73;7.30;;;;;;;;;;5054552;28;20048;-70
2022/05/17 00:32:50;;;;;;;24.30;7.47;;;;;;;;;;5054844;28;20076;-70
2022/05/17 00:35:16;;;;;;;23.38;7.68;;;;;;;;;;5054450;28;20083;-70
2022/05/17 00:37:43;;;;;;;26.25;7.55;;;;;;;;;;5054510;28;20513;-70
2022/05/17 00:40:10;;;;;;;20.17;7.57;;;;;;;;;;5054619;28;20136;-70
2022/05/17 00:42:37;;;;;;;19.70;7.65;;;;;;;;;;5054663;28;20052;-70
2022/05/17 00:45:04;;;;;;;23.35;8.23;;;;;;;;;;5054549;28;20441;-70
2022/05/17 00:47:32;;;;;;;20.60;8.63;;;;;;;;;;5054203;28;20045;-70
2022/05/17 00:50:05;;;;;;;26.63;7.63;;;;;;;;;;5054523;28;20103;-70
2022/05/17 00:52:35;;;;;;;22.25;8.18;;;;;;;;;;5052981;28;20114;-70
2022/05/17 00:55:04;;;;;;;18.17;7.22;;;;;;;;;;5054041;28;20508;-70
2022/05/17 00:57:35;;;;;;;23.45;9.15;;;;;;;;;;5054063;28;20128;-70
2022/05/17 01:00:06;;;;;;;20.40;7.00;;;;;;;;;;5053021;28;20080;-70
2022/05/17 01:02:32;;;;;;;22.45;6.80;;;;;;;;;;5053921;28;20087;-70
2022/05/17 01:05:00;;;;;;;24.38;7.00;;;;;;;;;;5054227;28;20088;-70
2022/05/17 01:07:31;;;;;;;20.25;5.80;;;;;;;;;;5053998;28;20081;-70
2022/05/17 01:09:57;;;;;;;20.83;7.00;;;;;;;;;;5053857;28;20087;-69
2022/05/17 01:12:24;;;;;;;19.73;6.80;;;;;;;;;;5053819;28;20476;-69
2022/05/17 01:15:00;;;;;;;24.10;6.75;;;;;;;;;;5054037;28;20128;-69
2022/05/17 01:17:28;;;;;;;18.65;6.93;;;;;;;;;;5053780;28;20045;-69
2022/05/17 01:19:55;;;;;;;19.25;6.35;;;;;;;;;;5053590;28;20080;-70
2022/05/17 01:22:22;;;;;;;19.70;6.88;;;;;;;;;;5053614;28;20071;-70
2022/05/17 01:24:48;;;;;;;21.33;7.88;;;;;;;;;;5053476;28;20337;-70
2022/05/17 01:27:18;;;;;;;21.15;8.02;;;;;;;;;;5053451;28;20063;-70
2022/05/17 01:29:45;;;;;;;21.60;7.97;;;;;;;;;;5053401;28;20496;-70
2022/05/17 01:32:12;;;;;;;24.55;8.60;;;;;;;;;;5053371;28;20520;-70
2022/05/17 01:34:39;;;;;;;26.08;8.93;;;;;;;;;;5053712;28;20057;-70
2022/05/17 01:37:05;;;;;;;28.65;8.68;;;;;;;;;;5053571;28;20077;-70
2022/05/17 01:39:33;;;;;;;18.10;7.57;;;;;;;;;;5053532;28;20052;-70
2022/05/17 01:41:59;;;;;;;22.30;8.27;;;;;;;;;;5053414;28;20073;-70
2022/05/17 01:44:26;;;;;;;18.98;8.82;;;;;;;;;;5052061;28;20493;-70
2022/05/17 01:46:52;;;;;;;23.50;6.85;;;;;;;;;;5052963;28;20136;-70
2022/05/17 01:49:18;;;;;;;21.08;6.95;;;;;;;;;;5053246;28;20075;-70
2022/05/17 01:51:45;;;;;;;13.05;6.47;;;;;;;;;;5052988;28;20089;-70
2022/05/17 01:54:11;;;;;;;18.02;7.25;;;;;;;;;;5052833;28;20502;-69
2022/05/17 01:56:38;;;;;;;19.35;5.88;;;;;;;;;;5053197;28;20084;-70
2022/05/17 01:59:04;;;;;;;21.70;6.85;;;;;;;;;;5052961;28;20127;-70
2022/05/17 02:01:31;;;;;;;17.70;5.60;;;;;;;;;;5051533;28;20084;-70
2022/05/17 02:03:57;;;;;;;19.65;6.38;;;;;;;;;;5052905;28;20049;-70
2022/05/17 02:06:24;;;;;;;24.23;7.00;;;;;;;;;;5053147;28;20087;-70
2022/05/17 02:08:51;;;;;;;19.33;6.90;;;;;;;;;;5068220;28;20458;-69
2022/05/17 02:11:17;;;;;;;18.27;6.18;;;;;;;;;;5052500;28;20517;-70
2022/05/17 02:13:44;;;;;;;13.73;5.90;;;;;;;;;;5052612;28;20080;-70
2022/05/17 02:16:10;;;;;;;22.55;6.72;;;;;;;;;;5052606;28;20152;-70
2022/05/17 02:18:40;;;;;;;17.70;6.22;;;;;;;;;;5052801;28;20083;-70
2022/05/17 02:21:06;;;;;;;15.43;5.38;;;;;;;;;;5052391;28;20080;-70
2022/05/17 02:23:33;;;;;;;19.05;5.50;;;;;;;;;;5052645;28;20425;-70
2022/05/17 02:25:59;;;;;;;15.52;5.72;;;;;;;;;;5052627;28;20143;-69
2022/05/17 02:28:26;;;;;;;16.83;4.97;;;;;;;;;;5052412;28;20462;-69
2022/05/17 02:30:52;;;;;;;15.13;5.53;;;;;;;;;;5052299;28;20073;-70
2022/05/17 02:33:19;;;;;;;19.05;5.78;;;;;;;;;;5052442;28;20049;-70
2022/05/17 02:35:45;;;;;;;17.33;5.10;;;;;;;;;;5052453;28;20048;-70
2022/05/17 02:38:11;;;;;;;16.00;5.13;;;;;;;;;;5051126;28;20480;-70
2022/05/17 02:40:38;;;;;;;10.95;5.20;;;;;;;;;;5052624;28;20080;-70
2022/05/17 02:43:05;;;;;;;13.70;4.72;;;;;;;;;;5051920;28;20469;-70
2022/05/17 02:45:32;;;;;;;17.40;4.50;;;;;;;;;;5052101;28;20071;-70
2022/05/17 02:47:58;;;;;;;15.77;4.78;;;;;;;;;;5051998;28;20298;-70
2022/05/17 02:50:24;;;;;;;20.40;5.07;;;;;;;;;;5051689;28;20080;-70
2022/05/17 02:52:52;;;;;;;17.48;5.22;;;;;;;;;;5052127;28;20049;-70
2022/05/17 02:55:18;;;;;;;18.27;5.10;;;;;;;;;;5051993;28;20045;-70
2022/05/17 02:57:46;;;;;;;9.82;4.50;;;;;;;;;;5051865;28;20428;-70
2022/05/17 03:00:14;;;;;;;18.88;4.75;;;;;;;;;;5052119;28;20081;-70
2022/05/17 03:02:40;;;;;;;18.58;5.70;;;;;;;;;;5051935;28;20088;-70
2022/05/17 03:05:08;;;;;;;16.25;4.47;;;;;;;;;;5051675;28;20049;-70
2022/05/17 03:07:34;;;;;;;24.60;5.88;;;;;;;;;;5051819;28;20084;-70
2022/05/17 03:10:00;;;;;;;20.58;5.80;;;;;;;;;;5052066;28;20080;-70
2022/05/17 03:12:27;;;;;;;20.08;4.85;;;;;;;;;;5051922;28;20076;-70
2022/05/17 03:14:53;;;;;;;15.40;5.28;;;;;;;;;;5051552;28;20449;-70
2022/05/17 03:17:20;;;;;;;12.50;5.30;;;;;;;;;;5050151;28;20568;-70
2022/05/17 03:19:46;;;;;;;18.17;5.07;;;;;;;;;;5050536;28;20091;-70
2022/05/17 03:22:12;;;;;;;19.70;5.70;;;;;;;;;;5051427;28;20143;-70
2022/05/17 03:24:39;;;;;;;16.00;4.97;;;;;;;;;;5051488;28;20441;-70
2022/05/17 03:27:25;;;;;;;16.08;6.05;;;;;;;;;;5051283;28;20515;-70
2022/05/17 03:29:52;;;;;;;16.40;5.53;;;;;;;;;;5051688;28;20095;-70
2022/05/17 03:32:18;;;;;;;14.38;5.97;;;;;;;;;;5051620;28;20111;-70
2022/05/17 03:34:44;;;;;;;14.65;5.95;;;;;;;;;;5051553;28;20079;-70
2022/05/17 03:37:11;;;;;;;16.83;6.10;;;;;;;;;;5051364;28;20084;-70
2022/05/17 03:39:38;;;;;;;13.98;6.53;;;;;;;;;;5051712;28;20084;-70
2022/05/17 03:42:04;;;;;;;16.55;6.70;;;;;;;;;;5051290;28;20083;-69
2022/05/17 03:44:31;;;;;;;19.55;7.78;;;;;;;;;;5051493;28;20076;-69
2022/05/17 03:46:57;;;;;;;16.50;7.53;;;;;;;;;;5051216;28;20084;-70
2022/05/17 03:49:23;;;;;;;20.63;7.78;;;;;;;;;;5051450;28;20099;-70
2022/05/17 03:51:50;;;;;;;17.73;8.38;;;;;;;;;;5051124;28;20106;-70
2022/05/17 03:54:22;;;;;;;17.58;9.18;;;;;;;;;;5051470;28;20083;-70
2022/05/17 03:56:48;;;;;;;18.50;8.93;;;;;;;;;;5055247;28;20053;-70
2022/05/17 03:59:14;;;;;;;18.45;9.18;;;;;;;;;;5055369;28;20092;-70
2022/05/17 04:01:41;;;;;;;19.33;8.07;;;;;;;;;;5055393;28;20088;-70
2022/05/17 04:04:07;;;;;;;16.65;8.68;;;;;;;;;;5055377;28;20135;-70
2022/05/17 04:06:34;;;;;;;20.33;10.05;;;;;;;;;;5055185;28;20083;-70
2022/05/17 04:09:00;;;;;;;17.88;9.02;;;;;;;;;;5055273;28;20464;-70
2022/05/17 04:11:27;;;;;;;16.67;9.30;;;;;;;;;;5054869;28;20080;-70
2022/05/17 04:13:53;;;;;;;17.85;9.82;;;;;;;;;;5055176;28;20076;-70
2022/05/17 04:16:20;;;;;;;13.70;9.57;;;;;;;;;;5054920;28;20080;-70
2022/05/17 04:18:47;;;;;;;18.65;9.88;;;;;;;;;;5054755;28;20386;-70
2022/05/17 04:21:14;;;;;;;18.23;10.30;;;;;;;;;;5054787;28;20553;-69
2022/05/17 04:23:41;;;;;;;15.88;10.35;;;;;;;;;;5054848;28;20083;-69
2022/05/17 04:26:08;;;;;;;18.95;10.45;;;;;;;;;;5054502;28;20485;-70
2022/05/17 04:28:34;;;;;;;23.73;11.07;;;;;;;;;;5054812;28;20475;-70
2022/05/17 04:31:01;;;;;;;17.60;10.80;;;;;;;;;;5054529;28;20073;-70
2022/05/17 04:33:27;;;;;;;20.67;10.45;;;;;;;;;;5054667;28;20080;-70
2022/05/17 04:35:54;;;;;;;20.25;11.35;;;;;;;;;;5054548;28;20091;-70
2022/05/17 04:38:21;;;;;;;21.50;11.73;;;;;;;;;;5054850;28;20091;-70
2022/05/17 04:40:48;;;;;;;19.75;11.80;;;;;;;;;;5054625;28;20106;-70
2022/05/17 04:43:14;;;;;;;22.58;11.23;;;;;;;;;;5054346;28;20393;-70
2022/05/17 04:45:44;;;;;;;17.95;10.40;;;;;;;;;;5054250;28;20048;-70
2022/05/17 04:48:11;;;;;;;21.52;10.73;;;;;;;;;;5054227;28;20436;-70
2022/05/17 04:50:37;;;;;;;18.85;10.20;;;;;;;;;;5053054;28;20080;-70
2022/05/17 04:53:04;;;;;;;19.77;10.90;;;;;;;;;;5054318;28;20045;-70
2022/05/17 04:55:31;;;;;;;19.00;10.43;;;;;;;;;;5054001;28;20405;-70
2022/05/17 04:57:58;;;;;;;18.30;11.70;;;;;;;;;;5054201;28;20072;-70
2022/05/17 05:00:25;;;;;;;22.80;11.55;;;;;;;;;;5054349;28;20056;-70
2022/05/17 05:02:51;;;;;;;21.70;11.57;;;;;;;;;;5054509;28;20045;-70
2022/05/17 05:05:18;;;;;;;19.25;10.15;;;;;;;;;;5053822;28;20313;-70
2022/05/17 05:07:46;;;;;;;15.70;9.48;;;;;;;;;;5053759;28;20037;-70
2022/05/17 05:10:12;;;;;;;18.15;10.40;;;;;;;;;;5053818;28;20447;-70
2022/05/17 05:12:39;;;;;;;17.50;10.50;;;;;;;;;;5053801;28;20508;-70
2022/05/17 05:15:07;;;;;;;19.48;10.68;;;;;;;;;;5053816;28;20599;-70
2022/05/17 05:17:34;;;;;;;18.60;11.10;;;;;;;;;;5054021;28;20118;-70
2022/05/17 05:20:00;;;;;;;20.98;11.45;;;;;;;;;;5053769;28;20164;-70
2022/05/17 05:22:29;;;;;;;15.63;10.85;;;;;;;;;;5054102;28;20048;-70
2022/05/17 05:24:55;;;;;;;18.15;10.70;;;;;;;;;;5053756;28;20083;-70
2022/05/17 05:27:21;;;;;;;15.63;10.55;;;;;;;;;;5053720;28;20076;-70
2022/05/17 05:29:48;;;;;;;17.08;10.95;;;;;;;;;;5052286;28;20089;-70
2022/05/17 05:32:15;;;;;;;21.25;12.07;;;;;;;;;;5053662;28;20041;-70
2022/05/17 05:34:41;;;;;;;19.35;10.60;;;;;;;;;;5053732;28;20080;-70
2022/05/17 05:37:08;;;;;;;17.50;10.93;;;;;;;;;;5053209;28;20071;-70
2022/05/17 05:39:34;;;;;;;18.55;10.05;;;;;;;;;;5053417;28;20500;-70
2022/05/17 05:42:01;;;;;;;18.75;10.77;;;;;;;;;;5053462;28;20084;-70
2022/05/17 05:44:27;;;;;;;15.95;10.68;;;;;;;;;;5053544;28;20087;-70
2022/05/17 05:46:53;;;;;;;21.63;11.02;;;;;;;;;;5053102;28;20083;-70
2022/05/17 05:49:20;;;;;;;16.27;9.23;;;;;;;;;;5053348;28;20045;-70
2022/05/17 05:51:47;;;;;;;15.40;8.73;;;;;;;;;;5052897;28;20077;-70
2022/05/17 05:54:14;;;;;;;15.27;8.15;;;;;;;;;;5052951;28;20048;-70
2022/05/17 05:56:40;;;;;;;13.40;8.13;;;;;;;;;;5053390;28;20476;-70
2022/05/17 05:59:07;;;;;;;10.63;7.82;;;;;;;;;;5052922;28;20505;-70
2022/05/17 06:01:33;;;;;;;9.30;5.97;;;;;;;;;;5051935;28;20140;-70
2022/05/17 06:04:00;;;;;;;7.65;5.30;;;;;;;;;;5052794;28;20057;-70
2022/05/17 06:06:27;;;;;;;16.30;8.63;;;;;;;;;;5051868;28;20053;-70
2022/05/17 06:08:54;;;;;;;10.15;5.70;;;;;;;;;;5052676;28;20584;-70
2022/05/17 06:11:21;;;;;;;10.63;4.38;;;;;;;;;;5052969;28;20037;-70
2022/05/17 06:13:48;;;;;;;8.55;3.58;;;;;;;;;;5052754;28;20080;-70
2022/05/17 06:16:15;;;;;;;11.97;6.57;;;;;;;;;;5052671;28;20473;-70
2022/05/17 06:18:42;;;;;;;13.30;5.57;;;;;;;;;;5051812;28;20141;-71
2022/05/17 06:21:08;;;;;;;12.02;5.45;;;;;;;;;;5052703;28;20056;-70
2022/05/17 06:23:35;;;;;;;7.38;4.65;;;;;;;;;;5052186;28;20049;-70
2022/05/17 06:26:02;;;;;;;8.40;3.28;;;;;;;;;;5051316;28;20087;-70
2022/05/17 06:28:29;;;;;;;9.65;2.50;;;;;;;;;;5051063;28;20655;-70
2022/05/17 06:30:55;;;;;;;10.77;3.20;;;;;;;;;;5052283;28;20049;-70
2022/05/17 06:33:22;;;;;;;7.00;2.10;;;;;;;;;;5052250;28;20459;-70
2022/05/17 06:35:50;;;;;;;8.85;1.85;;;;;;;;;;5052127;28;20069;-70
2022/05/17 06:38:17;;;;;;;6.13;1.98;;;;;;;;;;5050571;28;20512;-70
2022/05/17 06:40:43;;;;;;;3.40;1.80;;;;;;;;;;5049130;28;20079;-69
2022/05/17 06:43:10;;;;;;;9.83;1.97;;;;;;;;;;5051964;28;20136;-69
2022/05/17 06:45:37;;;;;;;5.35;1.48;;;;;;;;;;5051045;28;20052;-69
2022/05/17 06:48:03;;;;;;;3.78;1.50;;;;;;;;;;5051683;28;20091;-70
2022/05/17 06:50:31;;;;;;;8.95;1.88;;;;;;;;;;5051450;28;20049;-70
2022/05/17 06:52:58;;;;;;;8.80;1.70;;;;;;;;;;5051610;28;20094;-70
2022/05/17 06:55:24;;;;;;;5.63;1.58;;;;;;;;;;5051456;28;20156;-70
2022/05/17 06:57:51;;;;;;;4.93;1.30;;;;;;;;;;5051634;28;20081;-70
2022/05/17 07:00:19;;;;;;;8.30;1.77;;;;;;;;;;5051419;28;20045;-69
2022/05/17 07:02:46;;;;;;;6.88;1.65;;;;;;;;;;5050291;28;20508;-68
2022/05/17 07:05:13;;;;;;;6.55;1.20;;;;;;;;;;5051149;28;20051;-69
2022/05/17 07:07:39;;;;;;;6.38;1.75;;;;;;;;;;5051636;28;20504;-69
2022/05/17 07:13:09;;;;;;;6.10;1.20;;;;;;;;;;5051882;28;20430;-70
2022/05/17 07:15:37;;;;;;;4.25;1.30;;;;;;;;;;5051617;28;20125;-68
2022/05/17 07:18:04;;;;;;;4.40;1.50;;;;;;;;;;5051426;28;20057;-68
2022/05/17 07:20:31;;;;;;;4.07;1.35;;;;;;;;;;5048633;28;20080;-68
2022/05/17 07:22:57;;;;;;;5.45;1.30;;;;;;;;;;5051117;28;20049;-69
2022/05/17 07:25:24;;;;;;;4.65;1.30;;;;;;;;;;5050065;28;20500;-70
2022/05/17 07:27:50;;;;;;;8.13;1.60;;;;;;;;;;5051443;28;20567;-70
2022/05/17 07:30:17;;;;;;;5.28;1.48;;;;;;;;;;5050889;28;20076;-70
2022/05/17 07:32:43;;;;;;;4.18;1.60;;;;;;;;;;5051218;28;20076;-68
2022/05/17 07:35:10;;;;;;;11.18;1.80;;;;;;;;;;5051707;28;20083;-68
2022/05/17 07:37:36;;;;;;;6.85;1.83;;;;;;;;;;5051430;28;20570;-68
2022/05/17 07:40:03;;;;;;;3.42;1.25;;;;;;;;;;5051265;28;20084;-68
2022/05/17 07:42:31;;;;;;;5.40;1.60;;;;;;;;;;5051282;28;20136;-70
2022/05/17 07:44:58;;;;;;;7.25;1.33;;;;;;;;;;5050288;28;20048;-70
2022/05/17 07:47:24;;;;;;;5.15;1.50;;;;;;;;;;5050419;28;20077;-70
2022/05/17 07:49:51;;;;;;;5.43;1.55;;;;;;;;;;5049722;28;20774;-70
2022/05/17 07:52:17;;;;;;;5.07;1.25;;;;;;;;;;5050091;28;20084;-70
2022/05/17 07:54:44;;;;;;;5.83;1.27;;;;;;;;;;5050249;28;20045;-69
2022/05/17 07:57:10;;;;;;;4.80;1.50;;;;;;;;;;5050109;28;20076;-69
2022/05/17 07:59:37;;;;;;;5.37;1.20;;;;;;;;;;5050289;28;20317;-70
2022/05/17 08:02:03;;;;;;;6.68;1.95;;;;;;;;;;5050888;28;20080;-70
2022/05/17 08:04:30;;;;;;;4.25;1.02;;;;;;;;;;5051109;28;20091;-70
2022/05/17 08:06:57;;;;;;;4.85;1.30;;;;;;;;;;5051040;28;20562;-70
2022/05/17 08:09:23;;;;;;;4.70;0.98;;;;;;;;;;5051037;28;20169;-70
2022/05/17 08:11:51;;;;;;;4.43;1.50;;;;;;;;;;5051215;28;20079;-70
2022/05/17 08:14:17;;;;;;;1.85;0.88;;;;;;;;;;5051302;28;20128;-70
2022/05/17 08:16:44;;;;;;;4.82;1.30;;;;;;;;;;5051253;28;20077;-70
2022/05/17 08:19:11;;;;;;;4.75;1.23;;;;;;;;;;5049833;28;20076;-70
2022/05/17 08:21:38;;;;;;;3.15;0.90;;;;;;;;;;5050849;28;20135;-70
2022/05/17 08:24:04;;;;;;;4.82;1.20;;;;;;;;;;5050971;28;20136;-70
2022/05/17 08:29:16;;;;;;;6.10;1.40;;;;;;;;;;5050665;28;20056;-69
2022/05/17 08:31:42;;;;;;;4.75;1.67;;;;;;;;;;5050163;28;20464;-69
2022/05/17 08:34:10;;;;;;;3.55;0.77;;;;;;;;;;5051054;28;20044;-69
2022/05/17 08:36:36;;;;;;;6.65;1.10;;;;;;;;;;5049839;28;20049;-69
2022/05/17 08:39:03;;;;;;;3.67;1.25;;;;;;;;;;5046278;28;20531;-69
2022/05/17 08:41:50;;;;;;;2.90;1.02;;;;;;;;;;5053631;28;20408;-69
2022/05/17 08:44:21;;;;;;;6.30;1.20;;;;;;;;;;5054699;28;20061;-69
2022/05/17 08:46:47;;;;;;;4.53;1.20;;;;;;;;;;5054541;28;20105;-69
2022/05/17 08:49:52;;;;;;;3.42;1.10;;;;;;;;;;5054294;28;20049;-68
2022/05/17 08:52:19;;;;;;;5.50;1.40;;;;;;;;;;5053803;28;20106;-69
2022/05/17 08:54:55;;;;;;;3.03;1.10;;;;;;;;;;5045352;28;20099;-69
2022/05/17 08:57:29;;;;;;;2.83;0.77;;;;;;;;;;5054116;28;20045;-68
2022/05/17 08:59:56;;;;;;;4.30;1.30;;;;;;;;;;5054069;28;20060;-68
2022/05/17 09:02:33;;;;;;;3.38;0.98;;;;;;;;;;5054206;28;20049;-69
2022/05/17 09:05:08;;;;;;;3.05;1.05;;;;;;;;;;5054338;28;20053;-69
2022/05/17 09:07:40;;;;;;;3.50;0.90;;;;;;;;;;5054144;28;20053;-69
2022/05/17 09:10:12;;;;;;;5.10;1.20;;;;;;;;;;5053900;28;20091;-69
2022/05/17 09:12:42;;;;;;;3.00;1.23;;;;;;;;;;5054026;28;20085;-68
2022/05/17 09:15:11;;;;;;;2.90;1.15;;;;;;;;;;5054122;28;20049;-68
2022/05/17 09:17:38;;;;;;;4.68;1.23;;;;;;;;;;5053708;28;20045;-68
2022/05/17 09:20:05;;;;;;;5.90;1.23;;;;;;;;;;5053890;28;20098;-68
2022/05/17 09:22:31;;;;;;;6.07;1.55;;;;;;;;;;5054175;28;20053;-67
2022/05/17 09:24:59;;;;;;;4.53;1.13;;;;;;;;;;5053927;28;20045;-67
2022/05/17 09:27:34;;;;;;;6.72;1.27;;;;;;;;;;5053863;28;20097;-68
2022/05/17 09:30:11;;;;;;;4.45;1.00;;;;;;;;;;5053721;28;20128;-68
2022/05/17 09:32:43;;;;;;;4.05;0.88;;;;;;;;;;5053785;28;20382;-68
2022/05/17 09:35:12;;;;;;;4.88;0.95;;;;;;;;;;5053665;28;20047;-68
2022/05/17 09:37:41;;;;;;;5.93;1.10;;;;;;;;;;5053632;28;20091;-68
2022/05/17 09:40:09;;;;;;;4.28;1.48;;;;;;;;;;5052742;28;20135;-68
2022/05/17 09:42:42;;;;;;;6.05;1.30;;;;;;;;;;5052886;28;20492;-68
2022/05/17 09:45:15;;;;;;;5.43;1.17;;;;;;;;;;5053312;28;20484;-68
2022/05/17 09:47:44;;;;;;;3.25;0.93;;;;;;;;;;5053369;28;20390;-68
2022/05/17 09:53:02;;;;;;;3.75;1.30;;;;;;;;;;5051937;28;20081;-68
2022/05/17 09:55:33;;;;;;;5.72;1.15;;;;;;;;;;5053183;28;20468;-68
2022/05/17 09:58:00;;;;;;;6.13;1.40;;;;;;;;;;5052719;28;20048;-68
2022/05/17 10:00:31;;;;;;;4.80;1.40;;;;;;;;;;5053227;28;20095;-68
2022/05/17 10:03:05;;;;;;;4.55;1.10;;;;;;;;;;5052753;28;20049;-67
2022/05/17 10:05:38;;;;;;;5.82;1.25;;;;;;;;;;5050759;28;20128;-67
2022/05/17 10:08:10;;;;;;;7.22;1.52;;;;;;;;;;5052477;28;20049;-67
2022/05/17 10:10:38;;;;;;;6.20;1.55;;;;;;;;;;5053119;28;20104;-68
2022/05/17 10:13:18;;;;;;;3.42;1.00;;;;;;;;;;5052762;28;20475;-68
2022/05/17 10:15:45;;;;;;;4.43;1.05;;;;;;;;;;5052641;28;20084;-68
2022/05/17 10:18:20;;;;;;;5.07;1.38;;;;;;;;;;5052517;28;20056;-68
2022/05/17 10:20:49;;;;;;;3.15;0.85;;;;;;;;;;5052593;28;20084;-68
2022/05/17 10:23:27;;;;;;;4.53;1.20;;;;;;;;;;5052408;28;20091;-68
2022/05/17 10:26:00;;;;;;;5.22;1.10;;;;;;;;;;5052684;28;20087;-68
2022/05/17 10:28:29;;;;;;;6.00;1.42;;;;;;;;;;5052290;28;20048;-68
2022/05/17 10:30:59;;;;;;;3.78;1.13;;;;;;;;;;5052285;28;20077;-68
2022/05/17 10:33:35;;;;;;;5.50;1.30;;;;;;;;;;5052509;28;20041;-68
2022/05/17 10:36:03;;;;;;;4.20;1.30;;;;;;;;;;5052608;28;20045;-68
2022/05/17 10:38:34;;;;;;;4.15;1.25;;;;;;;;;;5052490;28;20053;-68
2022/05/17 10:41:03;;;;;;;3.90;1.38;;;;;;;;;;5052486;28;20080;-68
2022/05/17 10:43:32;;;;;;;3.72;1.15;;;;;;;;;;5052200;28;20564;-68
2022/05/17 10:46:04;;;;;;;3.78;1.00;;;;;;;;;;5052314;28;20052;-68
2022/05/17 10:48:39;;;;;;;6.65;1.30;;;;;;;;;;5052165;28;20099;-68
2022/05/17 10:51:24;;;;;;;5.07;1.20;;;;;;;;;;5052048;28;20084;-68
2022/05/17 10:53:56;;;;;;;3.55;1.02;;;;;;;;;;5051952;28;20049;-68
2022/05/17 10:56:26;;;;;;;3.85;1.30;;;;;;;;;;5051835;28;20084;-68
2022/05/17 10:59:08;;;;;;;6.20;1.40;;;;;;;;;;5051858;28;20580;-68
2022/05/17 11:01:46;;;;;;;4.07;0.88;;;;;;;;;;5052259;28;20102;-68
2022/05/17 11:04:30;;;;;;;4.55;1.10;;;;;;;;;;5051607;28;20765;-68
2022/05/17 11:07:03;;;;;;;4.35;1.00;;;;;;;;;;5051777;28;20049;-68
2022/05/17 11:09:45;;;;;;;4.47;1.10;;;;;;;;;;5049230;28;20467;-69
2022/05/17 11:12:13;;;;;;;4.82;1.27;;;;;;;;;;5051400;28;20124;-69
2022/05/17 11:14:45;;;;;;;5.20;1.52;;;;;;;;;;5051302;28;20523;-68
2022/05/17 11:17:14;;;;;;;4.00;1.25;;;;;;;;;;5051368;28;20132;-68
2022/05/17 11:19:50;;;;;;;3.25;1.02;;;;;;;;;;5051213;28;20132;-68
2022/05/17 11:22:19;;;;;;;4.38;1.13;;;;;;;;;;5051858;28;20401;-68
2022/05/17 11:24:48;;;;;;;4.90;1.00;;;;;;;;;;5051549;28;20571;-68
2022/05/17 11:27:14;;;;;;;4.22;1.10;;;;;;;;;;5051711;28;20080;-69
2022/05/17 11:29:59;;;;;;;3.22;0.82;;;;;;;;;;5050520;28;20081;-68
2022/05/17 11:32:29;;;;;;;2.85;1.02;;;;;;;;;;5040705;28;20092;-69
2022/05/17 11:34:56;;;;;;;4.72;1.23;;;;;;;;;;5050137;28;20080;-68
2022/05/17 11:37:31;;;;;;;3.65;1.13;;;;;;;;;;5050012;28;20076;-68
2022/05/17 11:40:04;;;;;;;3.58;0.90;;;;;;;;;;5047032;28;20194;-68
2022/05/17 11:42:32;;;;;;;4.55;1.58;;;;;;;;;;5050200;28;20057;-68
2022/05/17 11:45:17;;;;;;;4.20;1.10;;;;;;;;;;5050277;28;20065;-68
2022/05/17 11:47:43;;;;;;;5.90;1.27;;;;;;;;;;5050108;28;20146;-69
2022/05/17 11:50:16;;;;;;;3.38;0.88;;;;;;;;;;5050356;28;20475;-68
2022/05/17 11:52:44;;;;;;;4.65;1.25;;;;;;;;;;5050104;28;20087;-65
2022/05/17 11:55:11;;;;;;;2.53;0.90;;;;;;;;;;5037521;28;20090;-62
2022/05/17 11:57:38;;;;;;;3.95;1.08;;;;;;;;;;5048712;28;20111;-63
2022/05/17 12:00:04;;;;;;;;;;;;;;;;;;5048568;28;20535;-63
2022/05/17 12:02:43;;;;;;;2.60;0.70;;;;;;;;;;5050316;28;19979;-64
2022/05/17 12:05:11;;;;;;;3.92;1.13;;;;;;;;;;5049423;28;20049;-63
2022/05/17 12:07:37;;;;;;;4.43;1.13;;;;;;;;;;5036943;28;20084;-64
2022/05/17 12:10:14;;;;;;;4.07;0.88;;;;;;;;;;5050183;28;20128;-64
2022/05/17 12:12:43;;;;;;;4.97;1.33;;;;;;;;;;5050104;28;20118;-64
2022/05/17 12:15:19;;;;;;;3.75;1.00;;;;;;;;;;5050265;28;20080;-63
2022/05/17 12:17:46;;;;;;;3.53;0.98;;;;;;;;;;5053743;28;20488;-63
2022/05/17 12:20:18;;;;;;;2.88;1.02;;;;;;;;;;5050865;28;20501;-64
2022/05/17 12:22:49;;;;;;;3.22;1.00;;;;;;;;;;5053878;28;20171;-64
2022/05/17 12:25:20;;;;;;;2.38;0.80;;;;;;;;;;5052582;28;20080;-63
2022/05/17 12:27:47;;;;;;;3.33;1.27;;;;;;;;;;5053872;28;20127;-64
2022/05/17 12:33:10;;;;;;;3.35;1.05;;;;;;;;;;5053486;28;20045;-64
2022/05/17 12:35:37;;;;;;;3.65;0.88;;;;;;;;;;5053694;28;20452;-63
2022/05/17 12:43:02;;;;;;;3.67;1.00;;;;;;;;;;5053675;28;20084;-64
2022/05/17 12:43:35;;;;;;;3.70;0.98;;;;;;;;;;5053598;28;20084;-62
2022/05/17 12:46:10;;;;;;;1.15;0.70;;;;;;;;;;5053347;28;20049;-62
2022/05/17 12:48:37;;;;;;;4.43;1.00;;;;;;;;;;5053361;28;20463;-63
2022/05/17 12:51:06;;;;;;;4.10;1.10;;;;;;;;;;5052891;28;20512;-62
2022/05/17 12:53:37;;;;;;;3.08;0.90;;;;;;;;;;5053418;28;20080;-64
2022/05/17 12:56:07;;;;;;;4.53;0.88;;;;;;;;;;5052974;28;20132;-63
2022/05/17 12:58:35;;;;;;;4.47;0.90;;;;;;;;;;5052980;28;20471;-64
2022/05/17 13:01:03;;;;;;;2.58;0.80;;;;;;;;;;5050904;28;20084;-63
2022/05/17 13:03:30;;;;;;;4.95;1.23;;;;;;;;;;5053269;28;20053;-63
2022/05/17 13:06:01;;;;;;;3.42;1.27;;;;;;;;;;5053045;28;20127;-63
2022/05/17 13:08:30;;;;;;;2.53;0.70;;;;;;;;;;5052858;28;20049;-63
2022/05/17 13:11:00;;;;;;;4.43;1.10;;;;;;;;;;5052718;28;20570;-63
2022/05/17 13:13:27;;;;;;;2.35;0.63;;;;;;;;;;5052648;28;20078;-63
2022/05/17 13:16:02;;;;;;;3.88;1.02;;;;;;;;;;5052601;28;20084;-63
2022/05/17 13:18:39;;;;;;;4.28;0.95;;;;;;;;;;5052672;28;20041;-63
2022/05/17 13:21:08;;;;;;;3.38;0.90;;;;;;;;;;5053012;28;20048;-63
2022/05/17 13:23:34;;;;;;;3.13;0.65;;;;;;;;;;5052786;28;20076;-63
2022/05/17 13:26:02;;;;;;;5.00;1.38;;;;;;;;;;5052491;28;20137;-63
2022/05/17 13:28:31;;;;;;;3.53;0.82;;;;;;;;;;5052975;28;20080;-63
2022/05/17 13:31:14;;;;;;;2.40;0.80;;;;;;;;;;5052152;28;20552;-63
2022/05/17 13:34:01;;;;;;;3.65;0.90;;;;;;;;;;5052102;28;20052;-62
2022/05/17 13:36:28;;;;;;;;;;;;;;;;;;5052695;28;20493;-63
2022/05/17 13:38:54;;;;;;;4.03;0.68;;;;;;;;;;5051986;28;19983;-63
2022/05/17 13:41:31;;;;;;;6.70;0.98;;;;;;;;;;5052543;28;20076;-63
2022/05/17 13:44:03;;;;;;;3.28;0.60;;;;;;;;;;5052462;28;20103;-63
2022/05/17 13:46:29;;;;;;;2.58;0.70;;;;;;;;;;5046656;28;20077;-63
2022/05/17 13:49:02;;;;;;;3.67;0.88;;;;;;;;;;5043646;28;20568;-63
2022/05/17 13:51:43;;;;;;;2.25;0.68;;;;;;;;;;5051485;28;20557;-63
2022/05/17 13:54:10;;;;;;;3.97;1.00;;;;;;;;;;5051908;28;20087;-63
2022/05/17 13:56:41;;;;;;;4.75;0.70;;;;;;;;;;5051919;28;20497;-63
2022/05/17 13:59:07;;;;;;;4.18;0.93;;;;;;;;;;5050176;28;20332;-63
2022/05/17 14:01:37;;;;;;;2.20;0.68;;;;;;;;;;5052120;28;20128;-62
2022/05/17 14:04:23;;;;;;;2.90;0.85;;;;;;;;;;5051604;28;20049;-62
2022/05/17 14:06:54;;;;;;;5.15;1.05;;;;;;;;;;5052187;28;20049;-77
2022/05/17 14:12:26;;;;;;;3.83;0.90;;;;;;;;;;5038327;28;20056;-79
2022/05/17 14:14:54;;;;;;;;;;;;;;;;;;5053220;28;20080;-78
2022/05/17 14:17:24;;;;;;;3.03;0.80;;;;;;;;;;5052245;28;19929;-78
2022/05/17 14:19:55;;;;;;;3.55;0.73;;;;;;;;;;5051892;28;20403;-78
2022/05/17 14:22:22;;;;;;;3.03;0.80;;;;;;;;;;5052846;28;20439;-72
2022/05/17 14:24:48;;;;;;;2.20;0.80;;;;;;;;;;5052583;28;20053;-70
2022/05/17 14:27:15;;;;;;;2.22;0.60;;;;;;;;;;5049540;28;20076;-67
2022/05/17 14:29:42;;;;;;;4.60;1.00;;;;;;;;;;5040115;28;20084;-67
2022/05/17 14:32:11;;;;;;;5.93;1.05;;;;;;;;;;5050405;28;20045;-66
2022/05/17 14:34:38;;;;;;;3.50;0.80;;;;;;;;;;5052620;28;20091;-66
2022/05/17 14:37:04;;;;;;;;;;;;;;;;;;5053011;28;20076;-66
2022/05/17 14:39:32;;;;;;;3.55;1.23;;;;;;;;;;5051552;28;19920;-67
2022/05/17 14:41:59;;;;;;;4.10;1.00;;;;;;;;;;5049650;28;20055;-66
2022/05/17 14:44:27;;;;;;;1.45;0.50;;;;;;;;;;5051086;28;20520;-66
2022/05/17 14:47:01;;;;;;;2.33;0.70;;;;;;;;;;5051312;28;20080;-66
2022/05/17 14:49:28;;;;;;;3.75;1.05;;;;;;;;;;5050965;28;20485;-65
2022/05/17 14:51:55;;;;;;;1.83;0.93;;;;;;;;;;5050778;28;20056;-66
2022/05/17 14:54:21;;;;;;;;;;;;;;;;;;5051322;28;20152;-66
2022/05/17 14:56:48;;;;;;;3.20;0.73;;;;;;;;;;5051061;28;19963;-66
2022/05/17 14:59:14;;;;;;;3.15;0.70;;;;;;;;;;5050893;28;20087;-66
2022/05/17 15:01:43;;;;;;;2.72;0.70;;;;;;;;;;5051032;28;20048;-67
2022/05/17 15:04:11;;;;;;;1.75;0.70;;;;;;;;;;5050708;28;20041;-67